Laytonsville, Maryland
Current Conditions -  °F | °C
As of 8:55 PM on Saturday 22 Nov 2014 (Local Time) from KGAI Reporting Station
Overcast Overcast  
Wind Chill: 40°   Ceiling: 12000
Heat Index: 43°   Visibility: 10mi
Dew Point: 16°   Wind: 5mph
Humidity: 34%   Direction: 180°S
Pressure: 30.28"   Gusts: NA
Location:  39.2308°N, 77.143°W
Report Text: KGAI 230155Z 18004KT 10SM OVC120 06/M09 A3028 RMK AO1
Loading
Personal Weather Stations






























Interactive Weather Map New forecast layout! Learn more

10-Day Weather Forecast

Advertisements
Track Severe Weather on mobile